Damar, Kansas
Current Conditions -  °F | °C
As of 5:05 AM on Sunday 23 Nov 2014 (Local Time) from KHLC Reporting Station
Scattered Clouds Scattered Clouds  
Wind Chill: 45°   Ceiling: Unl
Heat Index: 48°   Visibility: 10mi
Dew Point: 46°   Wind: 6mph
Humidity: 93%   Direction: 300°WNW
Pressure: 29.47"   Gusts: NA
Location:  39.32°N, 99.58°W
Report Text: KHLC 231105Z AUTO 30005KT 10SM SCT013 09/08 A2947 RMK AO2 T00890078
Loading
Personal Weather Stations






























Interactive Weather Map New forecast layout! Learn more

10-Day Weather Forecast

Advertisements
Track Severe Weather on mobile